Topeka, KS (66618)

12:24 PM CDT on September 02, 2015 (GMT -0500)
Pleasant Hill Area | | Change Station
CLOSE
Current Station
Personal Weather Station
Location: Topeka, KS
Elevation: 1037 ft
Nearby Weather Stations

Elev 1037 ft 39.15 °N, 95.67 °W | Updated 27 seconds ago

Overcast
Overcast
85.3 °F
Feels Like 92 °F
N
8.3
Wind Variable Wind from ESE

Today
High -- | Low -- °F
--% Chance of Precip.
Yesterday
High -- | Low -- °F
Precip. -- in
6:52 AM 7:52 PM
Waning Gibbous, 79% visible
Pressure 29.99 in
Visibility 10.0 miles
Clouds Mostly Cloudy 11000 ft
Heat Index 92 °F
Dew Point 73 °F
Humidity 67%
Rainfall 0.08 in
Snow Depth Not available.
UV 4 out of 12
Pollen 11.30 out of 12
Air Quality Not available.
Flu Activity Not available.
METAR KTOP 021653Z 14008KT 10SM BKN110 26/22 A3001 RMK AO2 SLP155 T02610217
Pressure 29.99 in
Visibility 10.0 miles
Clouds Mostly Cloudy 11000 ft
Heat Index 92 °F
Dew Point 73 °F
Humidity 67%
Rainfall 0.08 in
Snow Depth Not available.
UV 4 out of 12
Pollen 11.30 out of 12
Air Quality Not available.
Flu Activity Not available.
METAR KTOP 021653Z 14008KT 10SM BKN110 26/22 A3001 RMK AO2 SLP155 T02610217

10-Day Weather Forecast

×

Almanac

Astronomy

Sep. 02, 2015 Rise Set
Actual Time
Civil Twilight
Nautical Twilight
Astronomical Twilight
Moon
Length of Visible Light
Length of Day
Tomorrow will be .
, % of the Moon is Illuminated

Today's Extremes

State Highs State Lows

Community

WunderPhotos

Upload Photos

1,851,785 photos uploaded!

WunderBlogs® & News

Nearby

Air Quality

  Air Quality AQ Index Pollutant
Not available.

Snow Depth

Station Depth Elevation

Earthquake Activity

City Distance Mag. Time & Date
Minimum magnitude displayed is 2.5.

Coastal Water Temperatures

Place Temperature

Stations

Nearby Weather Stations

Station Location Temp. Windchill Dew Point Humidity Wind Precip. Elev Updated Type